logo
Search for airport 
image banner adimage banner adimage banner ad
image banner ad

YJLC - Julia Creek

Located in Julia Creek, Australia

ICAO - YJLC, IATA - JCK

Data provided by Airmate  

General information

Coordinates: S20°40'6" E141°43'21"
Elevation is 404 feet MSL.
 
View others Airports in Queensland

Operational data

Special qualification required
Current time UTC:
Current local time:
Weather at : - ( 0 km )
METAR: UIII 180214Z 33003MPS 270V020 9000 BKN008CB 18/17 Q1002 R12/CLRD60 NOSIG RMK QBB240 MT OBSC QFE710/0946
View NOTAMs / SUP AIP / TFR affecting this airport [VIEW]
Communications frequencies: [VIEW]

Runways:

RWY identifierQFULength (ft)Width (ft)SurfaceLDA (ft)
10107°460098ASP
28287°460098ASP

Airport contact information

Address: Julia Creek Australia

Satellite view of YJLC